Time;durP1;ratioP1;P1;durP2;ratioP2;P2;SDS_P1;SDS_P2;PMS_P1;PMS_P2;Temp;Humidity;BMP_temperature;BMP_pressure;BME280_temperature;BME280_humidity;BME280_pressure;Samples;Min_cycle;Max_cycle;Signal;HPM_P1;HPM_P2
2022/06/19 00:01:36;;;;;;;1.60;1.50;;;;;;;20.27;56.34;96708.27;1737708;81;21468;-81
2022/06/19 00:04:04;;;;;;;2.80;1.40;;;;;;;20.27;56.65;96706.94;1730846;82;21040;-81
2022/06/19 00:06:30;;;;;;;2.47;1.57;;;;;;;20.21;56.67;96709.21;1730710;81;20976;-81
2022/06/19 00:08:55;;;;;;;2.45;1.75;;;;;;;20.17;57.34;96705.41;1730552;81;20959;-81
2022/06/19 00:11:22;;;;;;;2.05;1.60;;;;;;;20.12;56.34;96704.52;1742253;81;21339;-81
2022/06/19 00:13:47;;;;;;;3.72;1.77;;;;;;;20.13;56.91;96709.56;1720200;83;20987;-81
2022/06/19 00:16:13;;;;;;;2.00;1.60;;;;;;;20.15;56.83;96710.64;1720892;83;20956;-81
2022/06/19 00:18:39;;;;;;;2.80;2.02;;;;;;;20.15;56.78;96710.13;1706218;83;21003;-81
2022/06/19 00:21:06;;;;;;;2.10;1.50;;;;;;;20.16;56.74;96705.13;1707915;83;20948;-80
2022/06/19 00:23:32;;;;;;;2.58;1.70;;;;;;;20.16;56.48;96703.81;1731570;83;21037;-80
2022/06/19 00:25:58;;;;;;;2.92;1.80;;;;;;;20.10;57.17;96700.80;1731746;83;21072;-80
2022/06/19 00:28:23;;;;;;;2.80;1.62;;;;;;;20.03;57.30;96692.23;1715574;83;21355;-81
2022/06/19 00:30:49;;;;;;;1.80;1.70;;;;;;;20.00;57.08;96692.67;1731259;83;21013;-81
2022/06/19 00:33:15;;;;;;;2.95;1.92;;;;;;;20.00;57.34;96690.84;1702807;83;21055;-80
2022/06/19 00:35:41;;;;;;;1.95;1.50;;;;;;;19.99;57.38;96687.92;1701622;83;21398;-80
2022/06/19 00:38:07;;;;;;;3.37;1.80;;;;;;;19.97;57.42;96688.67;1730596;81;20987;-81
2022/06/19 00:40:33;;;;;;;1.85;1.45;;;;;;;19.95;57.26;96694.70;1730936;82;21051;-81
2022/06/19 00:42:59;;;;;;;2.60;2.22;;;;;;;19.95;57.12;96685.99;1745954;82;20946;-81
2022/06/19 00:45:41;;;;;;;2.20;1.60;;;;;;;19.93;57.02;96688.87;1730621;82;20938;-81
2022/06/19 00:48:30;;;;;;;3.15;1.70;;;;;;;19.96;56.67;96681.00;1733686;82;21015;-80
2022/06/19 00:50:59;;;;;;;1.65;1.55;;;;;;;20.00;57.28;96678.17;1695747;82;21025;-81
2022/06/19 00:53:31;;;;;;;5.30;1.80;;;;;;;19.97;57.13;96678.13;1735754;82;21012;-80
2022/06/19 00:55:57;;;;;;;4.72;2.35;;;;;;;19.99;57.16;96673.94;1732574;81;21319;-81
2022/06/19 00:58:27;;;;;;;1.95;1.80;;;;;;;19.99;56.89;96669.45;1731336;81;20959;-80
2022/06/19 01:01:00;;;;;;;2.20;1.90;;;;;;;20.01;56.79;96668.73;1696262;84;21033;-80
2022/06/19 01:03:31;;;;;;;2.08;1.57;;;;;;;20.03;57.04;96665.86;1721991;82;20979;-80
2022/06/19 01:05:57;;;;;;;3.55;1.92;;;;;;;20.05;56.61;96667.22;1733319;82;20992;-81
2022/06/19 01:08:22;;;;;;;3.15;2.17;;;;;;;20.12;56.82;96661.80;1730903;82;21291;-80
2022/06/19 01:10:50;;;;;;;4.03;1.98;;;;;;;20.12;56.82;96661.80;1736492;82;20946;-81
2022/06/19 01:13:21;;;;;;;1.77;1.60;;;;;;;20.16;56.35;96670.04;1739507;82;21016;-81
2022/06/19 01:15:47;;;;;;;2.17;1.55;;;;;;;20.16;56.14;96663.44;1730471;81;21019;-81
2022/06/19 01:18:12;;;;;;;2.22;2.00;;;;;;;20.16;56.85;96660.80;1726186;81;21023;-81
2022/06/19 01:20:39;;;;;;;3.02;1.72;;;;;;;20.14;56.24;96654.97;1734466;83;20929;-81
2022/06/19 01:23:15;;;;;;;2.87;1.52;;;;;;;20.16;56.05;96654.21;1731021;82;21354;-80
2022/06/19 01:25:42;;;;;;;3.47;2.12;;;;;;;20.21;55.50;96651.16;1706745;84;21035;-81
2022/06/19 01:31:06;;;;;;;3.67;1.60;;;;;;;20.27;55.70;96649.41;1726573;83;21023;-79
2022/06/19 01:33:40;;;;;;;2.30;1.90;;;;;;;20.29;55.09;96647.34;1701442;84;21011;-81
2022/06/19 01:36:06;;;;;;;2.98;1.80;;;;;;;20.33;55.02;96641.86;1730566;82;21023;-81
2022/06/19 01:38:32;;;;;;;2.22;1.62;;;;;;;20.39;55.06;96636.97;1736544;82;20949;-80
2022/06/19 01:41:01;;;;;;;2.50;1.65;;;;;;;20.41;54.44;96644.16;1689185;82;20922;-80
2022/06/19 01:43:27;;;;;;;2.08;1.65;;;;;;;20.46;54.40;96638.16;1747563;82;21023;-81
2022/06/19 01:45:53;;;;;;;1.80;1.42;;;;;;;20.49;54.17;96629.24;1729053;81;21409;-80
2022/06/19 01:48:21;;;;;;;2.95;1.60;;;;;;;20.55;53.85;96622.23;1731636;81;20926;-81
2022/06/19 01:50:46;;;;;;;2.50;1.87;;;;;;;20.59;53.68;96625.98;1730603;83;20987;-81
2022/06/19 01:53:33;;;;;;;4.17;1.52;;;;;;;20.63;53.75;96625.78;1735317;81;21273;-80
2022/06/19 01:55:59;;;;;;;2.15;1.50;;;;;;;20.65;53.59;96619.22;1730534;82;21039;-80
2022/06/19 01:58:27;;;;;;;2.45;1.62;;;;;;;20.64;53.94;96616.30;1745825;82;21089;-80
2022/06/19 02:00:53;;;;;;;2.92;1.50;;;;;;;20.61;53.33;96606.74;1730969;81;20956;-81
2022/06/19 02:03:29;;;;;;;2.45;1.70;;;;;;;20.60;53.67;96610.42;1728414;82;20999;-80
2022/06/19 02:05:55;;;;;;;2.85;1.60;;;;;;;20.59;53.25;96605.66;1693635;84;22138;-81
2022/06/19 02:08:21;;;;;;;3.05;1.67;;;;;;;20.64;53.06;96607.58;1698720;83;20991;-81
2022/06/19 02:10:47;;;;;;;2.83;1.45;;;;;;;20.72;52.64;96597.95;1702291;83;21007;-81
2022/06/19 02:13:15;;;;;;;2.12;1.77;;;;;;;20.82;52.65;96599.41;1736811;82;20992;-81
2022/06/19 02:15:44;;;;;;;3.10;1.60;;;;;;;20.83;52.68;96600.24;1734983;82;21060;-80
2022/06/19 02:18:12;;;;;;;3.72;1.40;;;;;;;20.81;53.01;96600.45;1742450;82;20971;-80
2022/06/19 02:20:38;;;;;;;3.52;1.70;;;;;;;20.83;52.40;96596.28;1742483;82;21007;-81
2022/06/19 02:23:05;;;;;;;3.90;1.62;;;;;;;20.84;52.23;96602.64;1731104;81;21013;-80
2022/06/19 02:25:33;;;;;;;2.08;1.55;;;;;;;20.85;52.16;96598.95;1731202;83;21319;-80
2022/06/19 02:27:59;;;;;;;2.62;1.72;;;;;;;20.89;52.09;96596.63;1735647;82;20984;-80
2022/06/19 02:30:25;;;;;;;1.82;1.47;;;;;;;20.94;51.72;96611.22;1690683;84;21040;-80
2022/06/19 02:32:51;;;;;;;2.05;1.30;;;;;;;20.97;51.60;96598.33;1712852;83;21027;-81
2022/06/19 02:35:23;;;;;;;2.47;1.50;;;;;;;20.99;51.75;96596.78;1704371;83;21036;-80
2022/06/19 02:37:52;;;;;;;2.58;1.50;;;;;;;20.98;51.65;96594.64;1725824;82;20997;-81
2022/06/19 02:40:55;;;;;;;2.55;1.37;;;;;;;20.98;51.57;96588.03;1728871;82;20975;-81
2022/06/19 02:43:28;;;;;;;1.95;1.37;;;;;;;21.00;51.31;96592.30;1729226;82;21345;-80
2022/06/19 02:45:55;;;;;;;3.77;1.60;;;;;;;21.04;51.79;96589.45;1731377;82;20985;-80
2022/06/19 02:48:27;;;;;;;2.77;1.82;;;;;;;21.04;51.17;96590.25;1730891;82;20944;-80
2022/06/19 02:50:54;;;;;;;4.08;1.55;;;;;;;21.06;51.24;96594.77;1746348;82;21407;-81
2022/06/19 02:53:20;;;;;;;2.12;1.37;;;;;;;21.08;50.72;96591.36;1734886;82;21006;-81
2022/06/19 02:55:46;;;;;;;2.12;1.47;;;;;;;21.08;50.97;96595.31;1732130;83;21401;-80
2022/06/19 02:58:12;;;;;;;2.92;1.65;;;;;;;21.09;51.04;96586.87;1740335;82;20957;-81
2022/06/19 03:00:38;;;;;;;2.58;1.42;;;;;;;21.07;51.19;96595.04;1732317;82;21022;-81
2022/06/19 03:03:08;;;;;;;2.17;1.37;;;;;;;21.06;51.25;96592.64;1711148;81;21441;-81
2022/06/19 03:05:35;;;;;;;3.37;1.85;;;;;;;21.04;51.09;96593.41;1740202;81;21036;-81
2022/06/19 03:08:01;;;;;;;2.95;1.80;;;;;;;21.02;51.36;96602.91;1725456;81;20955;-81
2022/06/19 03:10:27;;;;;;;4.10;1.75;;;;;;;21.02;50.90;96601.58;1725406;82;21418;-81
2022/06/19 03:12:54;;;;;;;2.15;1.77;;;;;;;21.06;50.61;96604.53;1730132;82;21375;-80
2022/06/19 03:15:20;;;;;;;2.85;1.35;;;;;;;21.12;50.62;96606.99;1729938;82;21028;-80
2022/06/19 03:17:46;;;;;;;2.65;1.40;;;;;;;21.15;50.56;96605.70;1730091;82;21016;-81
2022/06/19 03:20:15;;;;;;;2.45;1.70;;;;;;;21.17;50.55;96605.77;1729382;82;21012;-80
2022/06/19 03:22:41;;;;;;;3.50;1.70;;;;;;;21.20;50.23;96612.41;1724974;81;21064;-81
2022/06/19 03:25:07;;;;;;;4.17;1.47;;;;;;;21.24;50.52;96620.95;1723967;81;21398;-81
2022/06/19 03:27:33;;;;;;;2.45;1.40;;;;;;;21.25;50.07;96616.45;1725878;82;20937;-80
2022/06/19 03:29:58;;;;;;;3.08;1.30;;;;;;;21.26;50.49;96614.09;1728566;83;20999;-80
2022/06/19 03:32:24;;;;;;;3.65;1.10;;;;;;;21.24;50.23;96605.09;1731033;82;21526;-80
2022/06/19 03:34:50;;;;;;;1.75;1.40;;;;;;;21.23;49.97;96607.95;1726695;82;21067;-81
2022/06/19 03:37:15;;;;;;;2.00;1.60;;;;;;;21.24;50.15;96606.41;1724275;82;21006;-80
2022/06/19 03:39:41;;;;;;;1.80;1.20;;;;;;;21.23;50.78;96608.75;1727684;81;20946;-80
2022/06/19 03:42:07;;;;;;;3.00;1.40;;;;;;;21.23;49.96;96598.17;1725963;82;20975;-80
2022/06/19 03:44:33;;;;;;;1.98;1.30;;;;;;;21.28;50.24;96606.19;1730797;82;21013;-80
2022/06/19 03:46:59;;;;;;;2.50;1.27;;;;;;;21.31;50.10;96596.97;1732446;82;20988;-80
2022/06/19 03:49:26;;;;;;;3.98;1.42;;;;;;;21.38;49.57;96604.74;1731586;81;20979;-80
2022/06/19 03:51:53;;;;;;;2.65;1.70;;;;;;;21.44;49.77;96597.14;1733849;81;20956;-81
2022/06/19 03:54:19;;;;;;;2.25;1.32;;;;;;;21.45;49.85;96598.22;1705315;82;20937;-81
2022/06/19 03:56:45;;;;;;;2.20;1.30;;;;;;;21.44;50.06;96598.47;1727369;83;20947;-80
2022/06/19 03:59:12;;;;;;;3.30;1.50;;;;;;;21.41;50.44;96587.86;1729424;82;21038;-80
2022/06/19 04:01:42;;;;;;;4.35;2.05;;;;;;;21.39;49.94;96591.80;1722811;82;20987;-80
2022/06/19 04:04:09;;;;;;;3.15;1.30;;;;;;;21.37;50.05;96594.69;1732872;81;21469;-80
2022/06/19 04:06:39;;;;;;;2.98;1.50;;;;;;;21.38;50.04;96596.29;1708307;82;20953;-80
2022/06/19 04:09:07;;;;;;;2.25;1.40;;;;;;;21.38;50.21;96597.61;1737542;81;20996;-81
2022/06/19 04:11:34;;;;;;;2.85;1.65;;;;;;;21.36;50.20;96595.73;1731156;81;20961;-81
2022/06/19 04:13:59;;;;;;;1.85;1.22;;;;;;;21.37;49.90;96597.34;1716855;83;21486;-80
2022/06/19 04:16:32;;;;;;;3.27;1.42;;;;;;;21.36;50.18;96599.70;1750386;80;20958;-80
2022/06/19 04:19:03;;;;;;;1.55;1.30;;;;;;;21.33;50.21;96599.40;1731028;82;20994;-81
2022/06/19 04:21:32;;;;;;;1.40;1.30;;;;;;;21.32;50.56;96599.13;1731787;82;20953;-81
2022/06/19 04:24:00;;;;;;;2.12;1.47;;;;;;;21.32;50.41;96597.80;1732507;81;20928;-80
2022/06/19 04:26:28;;;;;;;2.92;1.65;;;;;;;21.33;50.11;96599.40;1732538;81;21021;-81
2022/06/19 04:28:55;;;;;;;2.40;1.47;;;;;;;21.35;49.74;96595.46;1731910;81;21023;-80
2022/06/19 04:31:20;;;;;;;2.70;1.62;;;;;;;21.38;49.67;96610.83;1732211;81;21025;-80
2022/06/19 04:33:46;;;;;;;3.10;1.75;;;;;;;21.39;49.63;96606.34;1732244;82;21082;-80
2022/06/19 04:36:15;;;;;;;2.67;1.60;;;;;;;21.45;49.28;96596.09;1711978;81;21051;-81
2022/06/19 04:38:42;;;;;;;3.65;1.30;;;;;;;21.49;49.29;96595.91;1738409;81;20974;-81
2022/06/19 04:41:14;;;;;;;2.25;1.40;;;;;;;21.51;49.51;96602.55;1733051;82;21312;-81
2022/06/19 04:43:40;;;;;;;2.95;1.45;;;;;;;21.51;49.49;96597.78;1712104;81;20950;-81
2022/06/19 04:46:06;;;;;;;2.80;1.55;;;;;;;21.52;49.37;96605.46;1731649;81;21340;-81
2022/06/19 04:48:33;;;;;;;1.95;1.25;;;;;;;21.52;49.05;96604.66;1728892;81;21029;-81
2022/06/19 04:50:59;;;;;;;1.90;1.37;;;;;;;21.53;49.04;96603.09;1732568;81;20986;-81
2022/06/19 04:53:25;;;;;;;2.55;1.60;;;;;;;21.55;48.98;96606.81;1716123;82;20944;-81
2022/06/19 04:55:51;;;;;;;3.92;1.30;;;;;;;21.56;49.09;96601.80;1732562;81;20943;-81
2022/06/19 04:58:18;;;;;;;2.25;1.57;;;;;;;21.55;49.46;96599.68;1733513;81;20999;-80
2022/06/19 05:00:43;;;;;;;3.70;1.80;;;;;;;21.54;48.88;96598.08;1727386;81;21031;-81
2022/06/19 05:03:09;;;;;;;3.25;1.47;;;;;;;21.55;48.84;96597.03;1735878;81;21099;-80
2022/06/19 05:05:35;;;;;;;2.17;1.45;;;;;;;21.60;48.74;96596.29;1745838;82;21004;-80
2022/06/19 05:08:01;;;;;;;3.90;1.47;;;;;;;21.62;48.88;96596.84;1748727;81;21011;-80
2022/06/19 05:10:27;;;;;;;2.95;1.60;;;;;;;21.63;49.17;96583.09;1749025;81;20994;-80
2022/06/19 05:12:56;;;;;;;2.60;1.50;;;;;;;21.63;48.95;96589.70;1743732;81;21054;-80
2022/06/19 05:15:22;;;;;;;2.65;1.22;;;;;;;21.65;49.15;96578.39;1746859;81;21014;-81
2022/06/19 05:17:48;;;;;;;2.55;1.30;;;;;;;21.67;48.78;96588.98;1741431;81;20989;-80
2022/06/19 05:20:13;;;;;;;3.65;1.40;;;;;;;21.70;49.08;96583.20;1749947;82;21315;-81
2022/06/19 05:22:39;;;;;;;1.70;1.40;;;;;;;21.73;49.04;96584.55;1747104;81;21345;-81
2022/06/19 05:25:08;;;;;;;2.20;1.42;;;;;;;21.76;49.27;96584.05;1736450;82;21030;-80
2022/06/19 05:27:33;;;;;;;2.47;1.70;;;;;;;21.77;49.63;96579.03;1733955;81;21264;-80
2022/06/19 05:29:59;;;;;;;2.47;1.20;;;;;;;21.77;49.80;96575.86;1727312;81;21997;-80
2022/06/19 05:32:26;;;;;;;1.95;1.50;;;;;;;21.78;49.93;96569.52;1721538;81;20979;-81
2022/06/19 05:34:53;;;;;;;2.90;1.47;;;;;;;21.81;49.75;96573.55;1713920;81;21375;-81
2022/06/19 05:37:19;;;;;;;2.52;1.32;;;;;;;21.80;49.63;96572.75;1713244;82;21002;-80
2022/06/19 05:39:44;;;;;;;4.25;1.70;;;;;;;21.80;49.59;96567.95;1686545;84;21005;-80
2022/06/19 05:42:10;;;;;;;1.80;1.40;;;;;;;21.82;50.41;96571.17;1714270;82;20950;-80
2022/06/19 05:44:36;;;;;;;2.17;1.47;;;;;;;21.81;49.89;96563.77;1723971;82;20998;-80
2022/06/19 05:47:03;;;;;;;2.47;1.45;;;;;;;21.83;50.05;96574.89;1712907;82;20975;-80
2022/06/19 05:49:31;;;;;;;2.85;1.50;;;;;;;21.84;50.14;96573.05;1717915;81;21473;-80
2022/06/19 05:51:56;;;;;;;2.52;1.72;;;;;;;21.84;50.19;96569.08;1723906;81;20987;-81
2022/06/19 05:54:22;;;;;;;1.65;1.20;;;;;;;21.86;49.94;96561.69;1719619;80;21258;-80
2022/06/19 05:56:47;;;;;;;4.00;1.35;;;;;;;21.87;50.26;96557.47;1733032;81;20964;-80
2022/06/19 05:59:13;;;;;;;4.28;2.10;;;;;;;21.90;49.92;96552.20;1717427;82;20913;-81
2022/06/19 06:01:39;;;;;;;2.85;1.52;;;;;;;21.95;49.61;96559.38;1734732;81;20960;-81
2022/06/19 06:04:04;;;;;;;4.05;1.50;;;;;;;21.97;49.21;96558.11;1754083;81;21022;-81
2022/06/19 06:06:31;;;;;;;1.30;1.20;;;;;;;22.02;49.82;96561.32;1754435;80;21291;-81
2022/06/19 06:08:57;;;;;;;2.30;1.30;;;;;;;22.06;49.97;96555.30;1751427;80;21086;-81
2022/06/19 06:11:23;;;;;;;3.35;1.75;;;;;;;22.11;49.99;96557.19;1746356;80;21079;-80
2022/06/19 06:13:48;;;;;;;4.67;1.65;;;;;;;22.15;49.89;96553.02;1755727;81;22029;-81
2022/06/19 06:16:18;;;;;;;1.57;1.07;;;;;;;22.19;49.72;96551.45;1752662;80;21023;-80
2022/06/19 06:18:44;;;;;;;2.15;1.32;;;;;;;22.23;49.27;96549.11;1757120;80;20955;-80
2022/06/19 06:21:13;;;;;;;2.98;1.60;;;;;;;22.27;49.51;96554.95;1747824;80;21050;-81
2022/06/19 06:23:39;;;;;;;1.82;1.20;;;;;;;22.32;49.45;96548.94;1743429;80;20948;-80
2022/06/19 06:26:16;;;;;;;3.55;1.87;;;;;;;22.38;49.82;96534.68;1751226;81;20989;-81
2022/06/19 06:28:44;;;;;;;2.55;1.95;;;;;;;22.44;49.36;96533.66;1745885;80;21054;-80
2022/06/19 06:31:10;;;;;;;2.75;1.45;;;;;;;22.49;49.75;96534.24;1741941;81;21346;-80
2022/06/19 06:33:35;;;;;;;2.33;1.40;;;;;;;22.56;49.41;96548.85;1737450;81;21010;-81
2022/06/19 06:36:02;;;;;;;3.80;1.98;;;;;;;22.61;49.32;96547.55;1733118;82;20991;-80
2022/06/19 06:38:27;;;;;;;2.45;1.67;;;;;;;22.68;49.48;96553.45;1739112;81;20998;-80
2022/06/19 06:40:53;;;;;;;3.10;1.47;;;;;;;22.73;49.53;96551.36;1734037;82;20912;-80
2022/06/19 06:43:20;;;;;;;2.47;1.47;;;;;;;22.79;49.21;96549.03;1731061;82;21393;-81
2022/06/19 06:45:45;;;;;;;1.85;1.37;;;;;;;22.85;49.04;96541.41;1738269;81;20975;-81
2022/06/19 06:48:11;;;;;;;3.62;1.65;;;;;;;22.92;48.73;96530.58;1747030;82;20995;-81
2022/06/19 06:50:38;;;;;;;2.08;1.60;;;;;;;22.98;48.68;96526.92;1737304;82;21011;-81
2022/06/19 06:53:05;;;;;;;1.80;1.35;;;;;;;23.04;48.86;96535.16;1729099;82;21043;-81
2022/06/19 06:55:30;;;;;;;3.40;1.40;;;;;;;23.11;49.40;96520.37;1728497;82;21441;-81
2022/06/19 06:57:56;;;;;;;2.00;1.25;;;;;;;23.18;49.20;96520.92;1739237;82;20989;-80
2022/06/19 07:00:23;;;;;;;3.05;1.62;;;;;;;23.23;49.04;96530.21;1749773;80;21300;-81
2022/06/19 07:02:49;;;;;;;2.17;1.40;;;;;;;23.27;48.91;96525.48;1752308;81;21105;-81
2022/06/19 07:05:15;;;;;;;3.92;1.42;;;;;;;23.30;48.86;96518.33;1752677;81;21044;-81
2022/06/19 07:07:41;;;;;;;1.57;1.32;;;;;;;23.35;49.08;96517.02;1747347;80;21002;-80
2022/06/19 07:10:08;;;;;;;3.52;1.50;;;;;;;23.45;49.86;96519.45;1740043;80;21363;-81
2022/06/19 07:12:34;;;;;;;2.50;1.60;;;;;;;23.52;49.42;96523.97;1731684;81;20968;-81
2022/06/19 07:14:59;;;;;;;3.95;1.57;;;;;;;23.60;50.00;96508.92;1724639;81;21375;-81
2022/06/19 07:17:25;;;;;;;2.22;1.62;;;;;;;23.66;49.65;96506.55;1709247;81;21007;-81
2022/06/19 07:19:51;;;;;;;2.70;1.65;;;;;;;23.76;49.60;96498.62;1724846;81;21292;-81
2022/06/19 07:22:17;;;;;;;2.77;1.70;;;;;;;23.88;48.89;96500.48;1749438;81;20988;-80
2022/06/19 07:24:43;;;;;;;3.08;1.57;;;;;;;23.88;48.89;96500.48;1740059;81;21003;-80
2022/06/19 07:27:09;;;;;;;2.70;1.60;;;;;;;23.96;49.21;96508.47;1739926;81;20999;-81
2022/06/19 07:29:42;;;;;;;2.35;1.70;;;;;;;24.06;49.76;96507.66;1717856;82;20928;-81
2022/06/19 07:32:08;;;;;;;1.77;1.32;;;;;;;24.14;49.91;96508.48;1729802;81;20987;-80
2022/06/19 07:34:34;;;;;;;2.20;1.40;;;;;;;24.22;50.19;96507.41;1735523;81;21051;-80
2022/06/19 07:37:00;;;;;;;2.37;1.40;;;;;;;24.32;49.34;96510.64;1736142;81;20940;-80
2022/06/19 07:39:26;;;;;;;2.45;1.50;;;;;;;24.41;49.44;96501.09;1749930;81;21475;-81
2022/06/19 07:41:52;;;;;;;3.17;1.55;;;;;;;24.48;48.81;96504.26;1749238;80;21389;-80
2022/06/19 07:44:18;;;;;;;2.33;1.40;;;;;;;24.58;48.55;96500.02;1735296;81;20997;-80
2022/06/19 07:52:13;;;;;;;2.70;1.60;;;;;;;24.83;48.03;96500.75;1736573;81;20989;-80
2022/06/19 07:54:39;;;;;;;2.37;1.40;;;;;;;24.92;48.05;96507.66;1734622;81;20968;-81
2022/06/19 07:57:05;;;;;;;2.58;2.08;;;;;;;25.01;47.82;96505.25;1734953;80;20964;-80
2022/06/19 07:59:31;;;;;;;3.17;1.50;;;;;;;25.11;47.54;96512.68;1733198;81;20979;-82
2022/06/19 08:01:56;;;;;;;2.87;1.50;;;;;;;25.22;46.91;96516.11;1741872;81;21003;-80
2022/06/19 08:04:23;;;;;;;2.65;1.55;;;;;;;25.28;46.22;96514.22;1730277;81;21070;-80
2022/06/19 08:06:49;;;;;;;3.47;1.70;;;;;;;25.37;46.31;96509.38;1737390;81;21000;-80
2022/06/19 08:09:15;;;;;;;1.82;1.30;;;;;;;25.50;47.04;96507.99;1728376;81;21020;-81
2022/06/19 08:11:40;;;;;;;2.55;1.37;;;;;;;25.63;46.39;96498.62;1738415;82;20948;-80
2022/06/19 08:14:06;;;;;;;2.35;1.25;;;;;;;25.75;45.62;96495.14;1735399;82;21000;-81
2022/06/19 08:16:32;;;;;;;2.87;1.20;;;;;;;25.84;45.15;96504.11;1736816;82;21025;-80
2022/06/19 08:18:58;;;;;;;3.50;1.45;;;;;;;25.93;44.45;96503.00;1725209;81;20973;-80
2022/06/19 08:21:24;;;;;;;1.77;1.25;;;;;;;26.07;44.39;96512.50;1739591;81;20918;-80
2022/06/19 08:23:50;;;;;;;4.05;1.25;;;;;;;26.17;43.27;96497.23;1743853;81;20953;-80
2022/06/19 08:26:15;;;;;;;3.02;1.20;;;;;;;26.26;43.90;96500.90;1721125;81;21303;-80
2022/06/19 08:28:46;;;;;;;3.80;1.40;;;;;;;26.40;43.84;96495.77;1731089;82;20902;-80
2022/06/19 08:31:09;;;;;;;2.75;1.30;;;;;;;26.57;42.30;96485.48;1729115;82;20969;-81
2022/06/19 08:33:35;;;;;;;3.00;1.20;;;;;;;26.57;42.30;96485.48;1727656;82;21041;-82
2022/06/19 08:36:07;;;;;;;2.92;1.12;;;;;;;26.71;41.34;96491.48;1737159;82;20953;-81
2022/06/19 08:38:34;;;;;;;;;;;;;;;26.82;40.97;96503.62;1742104;81;20937;-81
2022/06/19 08:41:17;;;;;;;5.35;1.32;;;;;;;26.91;41.52;96497.40;1735915;82;20126;-80
2022/06/19 08:44:20;;;;;;;1.80;1.02;;;;;;;27.02;39.88;96498.12;1726419;82;20945;-80
2022/06/19 08:47:31;;;;;;;2.42;1.30;;;;;;;27.05;40.64;96496.22;1713738;81;21001;-81
2022/06/19 08:50:37;;;;;;;2.85;1.00;;;;;;;27.13;40.95;96506.25;1732245;83;21065;-81
2022/06/19 08:53:44;;;;;;;2.90;1.20;;;;;;;27.21;39.40;96508.84;1740609;82;21426;-81
2022/06/19 08:56:24;;;;;;;3.35;1.32;;;;;;;27.27;39.13;96514.91;1728900;82;21032;-81
2022/06/19 08:59:16;;;;;;;4.75;1.20;;;;;;;27.36;39.37;96510.53;1745149;80;21331;-81
2022/06/19 09:01:51;;;;;;;3.08;1.15;;;;;;;27.48;40.10;96513.56;1727546;82;21083;-81
2022/06/19 09:08:14;;;;;;;4.80;1.30;;;;;;;27.67;40.07;96524.32;1735749;81;21009;-81
2022/06/19 09:10:51;;;;;;;1.87;1.10;;;;;;;27.78;39.70;96523.08;1691015;84;20949;-81
2022/06/19 09:13:57;;;;;;;2.95;1.22;;;;;;;27.93;39.73;96521.54;1709317;82;20997;-81
2022/06/19 09:16:39;;;;;;;4.72;1.40;;;;;;;27.98;38.80;96520.66;1700195;83;21970;-81
2022/06/19 09:19:48;;;;;;;4.10;1.32;;;;;;;27.94;38.92;96520.45;1693752;82;21417;-81
2022/06/19 09:23:05;;;;;;;4.08;1.27;;;;;;;27.97;39.56;96521.20;1706957;82;21076;-81
2022/06/19 09:26:07;;;;;;;2.20;1.37;;;;;;;28.08;38.94;96517.86;1651587;85;21057;-81
2022/06/19 09:28:54;;;;;;;3.58;1.50;;;;;;;28.20;39.34;96500.84;1650752;85;20977;-80
2022/06/19 09:31:55;;;;;;;2.45;0.88;;;;;;;28.23;37.85;96500.80;1709107;81;21004;-80
2022/06/19 09:34:52;;;;;;;5.22;2.17;;;;;;;28.24;39.30;96489.81;1702189;83;21063;-80
2022/06/19 09:37:32;;;;;;;2.60;1.30;;;;;;;28.35;38.83;96492.62;1741274;81;21024;-81
2022/06/19 09:40:29;;;;;;;3.67;1.50;;;;;;;28.38;39.03;96483.22;1685688;83;21030;-81
2022/06/19 09:43:22;;;;;;;4.17;1.60;;;;;;;28.39;38.45;96486.14;1742224;80;21346;-80
2022/06/19 09:46:03;;;;;;;3.12;1.10;;;;;;;28.38;38.20;96469.31;1725742;81;20982;-81
2022/06/19 09:48:55;;;;;;;3.00;1.57;;;;;;;28.39;37.80;96466.89;1721261;83;20995;-80
2022/06/19 09:51:26;;;;;;;6.37;1.37;;;;;;;28.44;38.25;96467.34;1735141;81;20943;-80
2022/06/19 09:54:04;;;;;;;3.90;1.47;;;;;;;28.50;38.26;96462.72;1735274;80;21331;-80
2022/06/19 09:56:50;;;;;;;4.33;1.50;;;;;;;28.52;38.19;96461.88;1721622;81;20996;-80
2022/06/19 09:59:24;;;;;;;3.17;1.40;;;;;;;28.53;38.23;96460.78;1734806;81;20984;-81
2022/06/19 10:01:57;;;;;;;3.33;1.17;;;;;;;28.58;38.08;96460.14;1701433;83;21406;-82
2022/06/19 10:04:31;;;;;;;4.20;1.35;;;;;;;28.61;37.29;96462.22;1727421;81;21014;-80
2022/06/19 10:06:58;;;;;;;5.53;1.85;;;;;;;28.58;38.01;96456.13;1735984;82;21062;-82
2022/06/19 10:09:40;;;;;;;2.67;1.57;;;;;;;28.59;38.92;96455.05;1720927;83;21052;-82
2022/06/19 10:12:11;;;;;;;5.22;1.27;;;;;;;28.61;37.97;96452.07;1733985;81;21051;-80
2022/06/19 10:14:42;;;;;;;3.40;1.22;;;;;;;28.68;38.75;96461.30;1729051;81;21401;-81
2022/06/19 10:17:23;;;;;;;3.95;1.67;;;;;;;28.77;39.01;96460.06;1716829;83;20979;-82
2022/06/19 10:20:00;;;;;;;5.45;1.80;;;;;;;28.89;40.91;96459.61;1719240;82;20940;-81
2022/06/19 10:23:11;;;;;;;4.00;1.35;;;;;;;28.96;39.89;96465.34;1689305;83;21382;-81
2022/06/19 10:25:56;;;;;;;3.17;1.35;;;;;;;28.95;38.00;96473.13;1646382;86;21003;-81
2022/06/19 10:28:36;;;;;;;3.62;1.40;;;;;;;28.93;39.24;96464.06;1642113;86;20972;-81
2022/06/19 10:31:36;;;;;;;5.83;1.70;;;;;;;28.94;39.16;96463.52;1708325;82;21001;-81
2022/06/19 10:34:40;;;;;;;3.92;1.45;;;;;;;28.88;38.98;96445.99;1695536;82;21003;-81
2022/06/19 10:37:37;;;;;;;4.30;1.50;;;;;;;28.95;40.54;96441.82;1667398;82;21471;-81
2022/06/19 10:40:14;;;;;;;3.75;1.55;;;;;;;28.97;39.68;96436.20;1718877;82;21042;-80
2022/06/19 10:43:10;;;;;;;6.37;1.85;;;;;;;29.03;38.59;96426.97;1659069;83;20977;-81
2022/06/19 10:45:50;;;;;;;4.03;1.70;;;;;;;29.02;38.60;96427.27;1732874;82;20966;-81
2022/06/19 10:48:27;;;;;;;4.85;1.55;;;;;;;29.10;39.55;96418.53;1685893;83;20999;-81
2022/06/19 10:51:26;;;;;;;3.27;1.30;;;;;;;29.13;38.60;96404.03;1732316;81;20944;-82
2022/06/19 10:54:33;;;;;;;9.33;1.90;;;;;;;29.16;39.73;96414.68;1725188;81;21009;-81
2022/06/19 10:57:16;;;;;;;3.35;1.77;;;;;;;29.18;39.22;96411.95;1690434;81;21050;-81
2022/06/19 10:59:42;;;;;;;3.58;1.67;;;;;;;29.19;38.94;96410.86;1737072;82;20925;-81
2022/06/19 11:05:18;;;;;;;4.58;2.10;;;;;;;29.28;39.33;96406.36;1704885;83;21096;-80
2022/06/19 11:07:43;;;;;;;4.00;1.55;;;;;;;29.35;39.24;96405.97;1704416;83;20921;-81
2022/06/19 11:10:29;;;;;;;3.92;1.55;;;;;;;29.36;37.56;96405.42;1745649;82;21042;-81
2022/06/19 11:12:57;;;;;;;3.55;1.42;;;;;;;29.37;38.00;96393.08;1734369;82;21004;-81
2022/06/19 11:15:34;;;;;;;4.10;1.65;;;;;;;29.37;37.55;96394.41;1732795;82;21374;-80
2022/06/19 11:18:22;;;;;;;3.20;1.60;;;;;;;29.42;38.26;96392.16;1722465;81;21015;-80
2022/06/19 11:21:06;;;;;;;4.47;1.80;;;;;;;29.47;38.35;96390.21;1734732;83;21039;-81
2022/06/19 11:23:42;;;;;;;5.05;1.77;;;;;;;29.50;37.43;96380.23;1711487;82;21010;-81
2022/06/19 11:26:25;;;;;;;5.90;1.60;;;;;;;29.51;38.29;96373.78;1712426;82;20958;-81
2022/06/19 11:29:00;;;;;;;4.75;1.35;;;;;;;29.57;38.44;96386.49;1702637;83;20972;-80
2022/06/19 11:31:35;;;;;;;5.37;2.12;;;;;;;29.62;38.03;96384.27;1732760;83;20969;-80
2022/06/19 11:34:43;;;;;;;4.50;2.27;;;;;;;29.68;37.90;96389.19;1687020;83;20992;-81
2022/06/19 11:36:43;;;;;;;8.55;2.55;;;;;;;29.75;38.40;96378.04;1685467;83;21027;-80
2022/06/19 11:39:33;;;;;;;6.70;2.22;;;;;;;29.82;38.02;96381.10;1708382;83;20931;-81
2022/06/19 11:42:03;;;;;;;3.80;2.07;;;;;;;29.88;38.47;96374.52;1699027;83;20976;-81
2022/06/19 11:44:28;;;;;;;3.30;2.20;;;;;;;29.96;38.43;96380.49;1704587;82;21189;-81
2022/06/19 11:46:55;;;;;;;5.20;1.57;;;;;;;30.02;37.66;96365.07;1710684;82;20996;-81
2022/06/19 11:49:31;;;;;;;6.08;1.85;;;;;;;30.09;36.81;96366.78;1714881;82;20947;-82
2022/06/19 11:52:02;;;;;;;5.47;1.90;;;;;;;30.16;37.27;96370.63;1716529;83;21433;-81
2022/06/19 11:54:32;;;;;;;3.62;1.60;;;;;;;30.22;36.89;96362.45;1711940;83;21005;-82
2022/06/19 11:56:57;;;;;;;3.92;1.50;;;;;;;30.22;37.41;96359.22;1685222;83;21000;-82
2022/06/19 11:59:39;;;;;;;4.60;1.42;;;;;;;30.24;35.91;96365.60;1711288;83;21379;-81
2022/06/19 12:02:28;;;;;;;7.62;1.82;;;;;;;30.27;36.99;96365.80;1707339;83;21054;-81
2022/06/19 12:04:58;;;;;;;5.17;2.55;;;;;;;30.31;35.41;96357.37;1707365;83;21044;-82
2022/06/19 12:07:27;;;;;;;4.50;1.92;;;;;;;30.38;35.90;96350.22;1715411;83;21383;-81
2022/06/19 12:09:58;;;;;;;5.97;2.20;;;;;;;30.40;35.25;96344.78;1716015;82;21343;-82